sensor_id;sensor_type;location;lat;lon;timestamp;temperature;humidity
12268;DHT22;6196;48.398;11.736;2022-08-01T00:00:07;19.70;99.90
12268;DHT22;6196;48.398;11.736;2022-08-01T00:02:39;19.70;99.90
12268;DHT22;6196;48.398;11.736;2022-08-01T00:05:07;19.70;99.90
12268;DHT22;6196;48.398;11.736;2022-08-01T00:07:36;19.70;99.90
12268;DHT22;6196;48.398;11.736;2022-08-01T00:10:04;19.70;99.90
12268;DHT22;6196;48.398;11.736;2022-08-01T00:12:32;19.70;99.90
12268;DHT22;6196;48.398;11.736;2022-08-01T00:14:59;19.60;99.90
12268;DHT22;6196;48.398;11.736;2022-08-01T00:17:26;19.60;99.90
12268;DHT22;6196;48.398;11.736;2022-08-01T00:19:53;19.60;99.90
12268;DHT22;6196;48.398;11.736;2022-08-01T00:22:20;19.60;99.90
12268;DHT22;6196;48.398;11.736;2022-08-01T00:24:47;19.60;99.90
12268;DHT22;6196;48.398;11.736;2022-08-01T00:27:14;19.60;99.90
12268;DHT22;6196;48.398;11.736;2022-08-01T00:29:41;19.60;99.90
12268;DHT22;6196;48.398;11.736;2022-08-01T00:32:31;19.60;99.90
12268;DHT22;6196;48.398;11.736;2022-08-01T00:34:58;19.50;99.90
12268;DHT22;6196;48.398;11.736;2022-08-01T00:37:25;19.50;99.90
12268;DHT22;6196;48.398;11.736;2022-08-01T00:39:52;19.50;99.90
12268;DHT22;6196;48.398;11.736;2022-08-01T00:42:18;19.50;99.90
12268;DHT22;6196;48.398;11.736;2022-08-01T00:44:45;19.50;99.90
12268;DHT22;6196;48.398;11.736;2022-08-01T00:47:12;19.40;99.90
12268;DHT22;6196;48.398;11.736;2022-08-01T00:49:39;19.50;99.90
12268;DHT22;6196;48.398;11.736;2022-08-01T00:52:07;19.40;99.90
12268;DHT22;6196;48.398;11.736;2022-08-01T00:54:35;19.30;99.90
12268;DHT22;6196;48.398;11.736;2022-08-01T00:57:03;19.30;99.90
12268;DHT22;6196;48.398;11.736;2022-08-01T00:59:36;19.30;99.90
12268;DHT22;6196;48.398;11.736;2022-08-01T01:02:07;19.20;99.90
12268;DHT22;6196;48.398;11.736;2022-08-01T01:04:41;19.20;99.90
12268;DHT22;6196;48.398;11.736;2022-08-01T01:09:58;19.10;99.90
12268;DHT22;6196;48.398;11.736;2022-08-01T01:12:34;19.10;99.90
12268;DHT22;6196;48.398;11.736;2022-08-01T01:15:12;19.10;99.90
12268;DHT22;6196;48.398;11.736;2022-08-01T01:17:46;19.00;99.90
12268;DHT22;6196;48.398;11.736;2022-08-01T01:20:20;19.00;99.90
12268;DHT22;6196;48.398;11.736;2022-08-01T01:25:50;19.00;99.90
12268;DHT22;6196;48.398;11.736;2022-08-01T01:31:57;18.90;99.90
12268;DHT22;6196;48.398;11.736;2022-08-01T01:34:29;18.90;99.90
12268;DHT22;6196;48.398;11.736;2022-08-01T01:37:01;18.80;99.90
12268;DHT22;6196;48.398;11.736;2022-08-01T01:39:30;18.80;99.90
12268;DHT22;6196;48.398;11.736;2022-08-01T01:42:00;18.70;99.90
12268;DHT22;6196;48.398;11.736;2022-08-01T01:44:27;18.70;99.90
12268;DHT22;6196;48.398;11.736;2022-08-01T01:46:56;18.70;99.90
12268;DHT22;6196;48.398;11.736;2022-08-01T01:49:26;18.60;99.90
12268;DHT22;6196;48.398;11.736;2022-08-01T01:51:56;18.50;99.90
12268;DHT22;6196;48.398;11.736;2022-08-01T01:54:32;18.40;99.90
12268;DHT22;6196;48.398;11.736;2022-08-01T01:57:02;18.40;99.90
12268;DHT22;6196;48.398;11.736;2022-08-01T01:59:32;18.30;99.90
12268;DHT22;6196;48.398;11.736;2022-08-01T02:02:04;18.30;99.90
12268;DHT22;6196;48.398;11.736;2022-08-01T02:04:35;18.20;99.90
12268;DHT22;6196;48.398;11.736;2022-08-01T02:07:04;18.20;99.90
12268;DHT22;6196;48.398;11.736;2022-08-01T02:09:33;18.20;99.90
12268;DHT22;6196;48.398;11.736;2022-08-01T02:12:02;18.10;99.90
12268;DHT22;6196;48.398;11.736;2022-08-01T02:14:35;18.10;99.90
12268;DHT22;6196;48.398;11.736;2022-08-01T02:17:03;18.00;99.90
12268;DHT22;6196;48.398;11.736;2022-08-01T02:19:32;18.00;99.90
12268;DHT22;6196;48.398;11.736;2022-08-01T02:22:11;18.00;99.90
12268;DHT22;6196;48.398;11.736;2022-08-01T02:24:55;17.90;99.90
12268;DHT22;6196;48.398;11.736;2022-08-01T02:27:59;17.90;99.90
12268;DHT22;6196;48.398;11.736;2022-08-01T02:30:33;17.90;99.90
12268;DHT22;6196;48.398;11.736;2022-08-01T02:33:37;17.80;99.90
12268;DHT22;6196;48.398;11.736;2022-08-01T02:36:07;17.80;99.90
12268;DHT22;6196;48.398;11.736;2022-08-01T02:38:55;17.70;99.90
12268;DHT22;6196;48.398;11.736;2022-08-01T02:41:26;17.60;99.90
12268;DHT22;6196;48.398;11.736;2022-08-01T02:43:58;17.60;99.90
12268;DHT22;6196;48.398;11.736;2022-08-01T02:46:32;17.50;99.90
12268;DHT22;6196;48.398;11.736;2022-08-01T02:49:07;17.50;99.90
12268;DHT22;6196;48.398;11.736;2022-08-01T02:51:36;17.50;99.90
12268;DHT22;6196;48.398;11.736;2022-08-01T02:54:05;17.50;99.90
12268;DHT22;6196;48.398;11.736;2022-08-01T02:56:35;17.50;99.90
12268;DHT22;6196;48.398;11.736;2022-08-01T02:59:13;17.50;99.90
12268;DHT22;6196;48.398;11.736;2022-08-01T03:01:47;17.50;99.90
12268;DHT22;6196;48.398;11.736;2022-08-01T03:04:16;17.60;99.90
12268;DHT22;6196;48.398;11.736;2022-08-01T03:06:44;17.60;99.90
12268;DHT22;6196;48.398;11.736;2022-08-01T03:09:13;17.60;99.90
12268;DHT22;6196;48.398;11.736;2022-08-01T03:11:43;17.60;99.90
12268;DHT22;6196;48.398;11.736;2022-08-01T03:14:12;17.70;99.90
12268;DHT22;6196;48.398;11.736;2022-08-01T03:16:42;17.70;99.90
12268;DHT22;6196;48.398;11.736;2022-08-01T03:19:11;17.70;99.90
12268;DHT22;6196;48.398;11.736;2022-08-01T03:21:39;17.70;99.90
12268;DHT22;6196;48.398;11.736;2022-08-01T03:24:08;17.80;99.90
12268;DHT22;6196;48.398;11.736;2022-08-01T03:26:38;17.80;99.90
12268;DHT22;6196;48.398;11.736;2022-08-01T03:29:08;17.80;99.90
12268;DHT22;6196;48.398;11.736;2022-08-01T03:31:38;17.90;99.90
12268;DHT22;6196;48.398;11.736;2022-08-01T03:34:09;17.90;99.90
12268;DHT22;6196;48.398;11.736;2022-08-01T03:36:49;17.90;99.90
12268;DHT22;6196;48.398;11.736;2022-08-01T03:39:22;17.90;99.90
12268;DHT22;6196;48.398;11.736;2022-08-01T03:42:01;17.90;99.90
12268;DHT22;6196;48.398;11.736;2022-08-01T03:44:33;17.80;99.90
12268;DHT22;6196;48.398;11.736;2022-08-01T03:47:09;17.80;99.90
12268;DHT22;6196;48.398;11.736;2022-08-01T03:49:41;17.90;99.90
12268;DHT22;6196;48.398;11.736;2022-08-01T03:52:09;17.90;99.90
12268;DHT22;6196;48.398;11.736;2022-08-01T03:54:40;17.90;99.90
12268;DHT22;6196;48.398;11.736;2022-08-01T03:57:10;17.80;99.90
12268;DHT22;6196;48.398;11.736;2022-08-01T03:59:58;17.90;99.90
12268;DHT22;6196;48.398;11.736;2022-08-01T04:02:26;17.90;99.90
12268;DHT22;6196;48.398;11.736;2022-08-01T04:04:54;18.00;99.90
12268;DHT22;6196;48.398;11.736;2022-08-01T04:07:27;18.00;99.90
12268;DHT22;6196;48.398;11.736;2022-08-01T04:09:55;18.10;99.90
12268;DHT22;6196;48.398;11.736;2022-08-01T04:12:23;18.20;99.90
12268;DHT22;6196;48.398;11.736;2022-08-01T04:14:50;18.20;99.90
12268;DHT22;6196;48.398;11.736;2022-08-01T04:17:17;18.30;99.90
12268;DHT22;6196;48.398;11.736;2022-08-01T04:19:45;18.30;99.90
12268;DHT22;6196;48.398;11.736;2022-08-01T04:22:14;18.40;99.90
12268;DHT22;6196;48.398;11.736;2022-08-01T04:24:45;18.50;99.90
12268;DHT22;6196;48.398;11.736;2022-08-01T04:27:27;18.50;99.90
12268;DHT22;6196;48.398;11.736;2022-08-01T04:30:26;18.60;99.90
12268;DHT22;6196;48.398;11.736;2022-08-01T04:32:55;18.70;99.90
12268;DHT22;6196;48.398;11.736;2022-08-01T04:35:24;18.70;99.90
12268;DHT22;6196;48.398;11.736;2022-08-01T04:38:17;18.80;99.90
12268;DHT22;6196;48.398;11.736;2022-08-01T04:40:50;18.90;99.90
12268;DHT22;6196;48.398;11.736;2022-08-01T04:43:17;19.00;99.90
12268;DHT22;6196;48.398;11.736;2022-08-01T04:45:46;19.00;99.90
12268;DHT22;6196;48.398;11.736;2022-08-01T04:48:17;19.10;99.90
12268;DHT22;6196;48.398;11.736;2022-08-01T04:50:48;19.20;99.90
12268;DHT22;6196;48.398;11.736;2022-08-01T04:53:17;19.30;99.90
12268;DHT22;6196;48.398;11.736;2022-08-01T04:55:45;19.40;99.90
12268;DHT22;6196;48.398;11.736;2022-08-01T04:58:14;19.40;99.90
12268;DHT22;6196;48.398;11.736;2022-08-01T05:00:45;19.40;99.90
12268;DHT22;6196;48.398;11.736;2022-08-01T05:03:13;19.40;99.90
12268;DHT22;6196;48.398;11.736;2022-08-01T05:05:40;19.40;99.90
12268;DHT22;6196;48.398;11.736;2022-08-01T05:08:06;19.40;99.90
12268;DHT22;6196;48.398;11.736;2022-08-01T05:10:34;19.40;99.90
12268;DHT22;6196;48.398;11.736;2022-08-01T05:13:01;19.40;99.90
12268;DHT22;6196;48.398;11.736;2022-08-01T05:15:28;19.40;99.90
12268;DHT22;6196;48.398;11.736;2022-08-01T05:17:55;19.50;99.90
12268;DHT22;6196;48.398;11.736;2022-08-01T05:20:23;19.60;99.90
12268;DHT22;6196;48.398;11.736;2022-08-01T05:22:49;19.60;99.90
12268;DHT22;6196;48.398;11.736;2022-08-01T05:25:16;19.70;99.90
12268;DHT22;6196;48.398;11.736;2022-08-01T05:28:04;19.80;99.90
12268;DHT22;6196;48.398;11.736;2022-08-01T05:30:31;19.80;99.90
12268;DHT22;6196;48.398;11.736;2022-08-01T05:32:58;19.90;99.90
12268;DHT22;6196;48.398;11.736;2022-08-01T05:35:25;19.90;99.90
12268;DHT22;6196;48.398;11.736;2022-08-01T05:38:12;19.90;99.90
12268;DHT22;6196;48.398;11.736;2022-08-01T05:40:40;19.90;99.90
12268;DHT22;6196;48.398;11.736;2022-08-01T05:43:07;20.00;99.90
12268;DHT22;6196;48.398;11.736;2022-08-01T05:45:34;19.90;99.90
12268;DHT22;6196;48.398;11.736;2022-08-01T05:48:01;19.90;99.90
12268;DHT22;6196;48.398;11.736;2022-08-01T05:50:28;20.00;99.90
12268;DHT22;6196;48.398;11.736;2022-08-01T05:52:54;20.00;99.90
12268;DHT22;6196;48.398;11.736;2022-08-01T05:55:21;20.00;99.90
12268;DHT22;6196;48.398;11.736;2022-08-01T05:57:48;20.10;99.90
12268;DHT22;6196;48.398;11.736;2022-08-01T06:00:15;20.00;99.90
12268;DHT22;6196;48.398;11.736;2022-08-01T06:02:42;20.00;99.90
12268;DHT22;6196;48.398;11.736;2022-08-01T06:05:10;19.90;99.90
12268;DHT22;6196;48.398;11.736;2022-08-01T06:07:39;20.10;99.90
12268;DHT22;6196;48.398;11.736;2022-08-01T06:10:08;20.10;99.90
12268;DHT22;6196;48.398;11.736;2022-08-01T06:12:36;20.20;99.90
12268;DHT22;6196;48.398;11.736;2022-08-01T06:15:04;20.50;99.90
12268;DHT22;6196;48.398;11.736;2022-08-01T06:17:32;20.90;99.90
12268;DHT22;6196;48.398;11.736;2022-08-01T06:19:59;21.40;99.90
12268;DHT22;6196;48.398;11.736;2022-08-01T06:22:26;21.80;99.90
12268;DHT22;6196;48.398;11.736;2022-08-01T06:24:53;22.30;99.90
12268;DHT22;6196;48.398;11.736;2022-08-01T06:27:20;22.60;99.90
12268;DHT22;6196;48.398;11.736;2022-08-01T06:29:48;22.70;99.90
12268;DHT22;6196;48.398;11.736;2022-08-01T06:32:20;22.90;99.90
12268;DHT22;6196;48.398;11.736;2022-08-01T06:34:53;22.90;99.90
12268;DHT22;6196;48.398;11.736;2022-08-01T06:37:21;23.00;99.90
12268;DHT22;6196;48.398;11.736;2022-08-01T06:39:48;23.20;99.90
12268;DHT22;6196;48.398;11.736;2022-08-01T06:42:16;23.50;99.90
12268;DHT22;6196;48.398;11.736;2022-08-01T06:44:44;23.90;99.90
12268;DHT22;6196;48.398;11.736;2022-08-01T06:47:11;24.20;99.90
12268;DHT22;6196;48.398;11.736;2022-08-01T06:49:38;24.50;99.90
12268;DHT22;6196;48.398;11.736;2022-08-01T06:52:05;24.60;99.90
12268;DHT22;6196;48.398;11.736;2022-08-01T06:54:32;25.00;99.90
12268;DHT22;6196;48.398;11.736;2022-08-01T06:56:59;25.10;99.90
12268;DHT22;6196;48.398;11.736;2022-08-01T06:59:27;25.30;99.90
12268;DHT22;6196;48.398;11.736;2022-08-01T07:01:54;25.50;99.90
12268;DHT22;6196;48.398;11.736;2022-08-01T07:04:21;25.60;99.90
12268;DHT22;6196;48.398;11.736;2022-08-01T07:06:48;25.80;99.90
12268;DHT22;6196;48.398;11.736;2022-08-01T07:09:15;26.10;99.90
12268;DHT22;6196;48.398;11.736;2022-08-01T07:11:41;26.30;99.90
12268;DHT22;6196;48.398;11.736;2022-08-01T07:14:08;26.50;99.90
12268;DHT22;6196;48.398;11.736;2022-08-01T07:16:35;26.60;99.90
12268;DHT22;6196;48.398;11.736;2022-08-01T07:19:02;26.50;99.90
12268;DHT22;6196;48.398;11.736;2022-08-01T07:21:29;26.80;99.90
12268;DHT22;6196;48.398;11.736;2022-08-01T07:24:08;26.60;99.90
12268;DHT22;6196;48.398;11.736;2022-08-01T07:26:47;26.50;99.90
12268;DHT22;6196;48.398;11.736;2022-08-01T07:29:21;26.40;99.90
12268;DHT22;6196;48.398;11.736;2022-08-01T07:31:49;26.60;99.90
12268;DHT22;6196;48.398;11.736;2022-08-01T07:34:16;26.50;99.90
12268;DHT22;6196;48.398;11.736;2022-08-01T07:36:43;26.20;99.90
12268;DHT22;6196;48.398;11.736;2022-08-01T07:39:10;26.30;99.90
12268;DHT22;6196;48.398;11.736;2022-08-01T07:41:37;26.50;99.90
12268;DHT22;6196;48.398;11.736;2022-08-01T07:44:24;26.90;99.90
12268;DHT22;6196;48.398;11.736;2022-08-01T07:46:54;27.10;99.90
12268;DHT22;6196;48.398;11.736;2022-08-01T07:49:21;27.50;99.90
12268;DHT22;6196;48.398;11.736;2022-08-01T07:51:49;27.50;99.90
12268;DHT22;6196;48.398;11.736;2022-08-01T07:54:36;27.60;99.90
12268;DHT22;6196;48.398;11.736;2022-08-01T07:57:03;27.40;99.90
12268;DHT22;6196;48.398;11.736;2022-08-01T07:59:30;27.50;99.90
12268;DHT22;6196;48.398;11.736;2022-08-01T08:01:57;27.90;99.90
12268;DHT22;6196;48.398;11.736;2022-08-01T08:04:26;28.00;99.90
12268;DHT22;6196;48.398;11.736;2022-08-01T08:06:54;27.90;99.90
12268;DHT22;6196;48.398;11.736;2022-08-01T08:09:21;28.20;99.90
12268;DHT22;6196;48.398;11.736;2022-08-01T08:11:49;28.60;99.90
12268;DHT22;6196;48.398;11.736;2022-08-01T08:14:16;28.50;99.90
12268;DHT22;6196;48.398;11.736;2022-08-01T08:16:44;28.40;99.90
12268;DHT22;6196;48.398;11.736;2022-08-01T08:19:11;28.50;99.90
12268;DHT22;6196;48.398;11.736;2022-08-01T08:21:38;28.40;99.90
12268;DHT22;6196;48.398;11.736;2022-08-01T08:24:07;28.70;99.90
12268;DHT22;6196;48.398;11.736;2022-08-01T08:26:58;28.50;99.90
12268;DHT22;6196;48.398;11.736;2022-08-01T08:29:28;28.60;99.90
12268;DHT22;6196;48.398;11.736;2022-08-01T08:32:00;28.70;99.90
12268;DHT22;6196;48.398;11.736;2022-08-01T08:34:28;28.80;99.90
12268;DHT22;6196;48.398;11.736;2022-08-01T08:36:56;27.90;99.90
12268;DHT22;6196;48.398;11.736;2022-08-01T08:39:25;27.70;99.90
12268;DHT22;6196;48.398;11.736;2022-08-01T08:41:52;27.50;99.90
12268;DHT22;6196;48.398;11.736;2022-08-01T08:44:19;27.60;99.90
12268;DHT22;6196;48.398;11.736;2022-08-01T08:46:49;27.50;99.90
12268;DHT22;6196;48.398;11.736;2022-08-01T08:49:25;27.20;99.90
12268;DHT22;6196;48.398;11.736;2022-08-01T08:52:03;27.40;99.90
12268;DHT22;6196;48.398;11.736;2022-08-01T08:54:36;27.50;99.90
12268;DHT22;6196;48.398;11.736;2022-08-01T08:57:04;28.00;99.90
12268;DHT22;6196;48.398;11.736;2022-08-01T08:59:31;28.60;99.90
12268;DHT22;6196;48.398;11.736;2022-08-01T09:01:59;29.00;99.90
12268;DHT22;6196;48.398;11.736;2022-08-01T09:04:26;28.80;99.90
12268;DHT22;6196;48.398;11.736;2022-08-01T09:06:54;28.90;99.90
12268;DHT22;6196;48.398;11.736;2022-08-01T09:09:21;29.10;99.90
12268;DHT22;6196;48.398;11.736;2022-08-01T09:11:49;29.00;99.90
12268;DHT22;6196;48.398;11.736;2022-08-01T09:14:32;29.20;99.90
12268;DHT22;6196;48.398;11.736;2022-08-01T09:17:09;29.30;99.90
12268;DHT22;6196;48.398;11.736;2022-08-01T09:19:43;29.00;99.90
12268;DHT22;6196;48.398;11.736;2022-08-01T09:22:15;28.70;99.90
12268;DHT22;6196;48.398;11.736;2022-08-01T09:25:05;28.80;99.90
12268;DHT22;6196;48.398;11.736;2022-08-01T09:27:35;29.30;99.90
12268;DHT22;6196;48.398;11.736;2022-08-01T09:30:14;28.60;99.90
12268;DHT22;6196;48.398;11.736;2022-08-01T09:33:09;28.90;99.90
12268;DHT22;6196;48.398;11.736;2022-08-01T09:35:55;29.30;99.90
12268;DHT22;6196;48.398;11.736;2022-08-01T09:38:24;29.50;99.90
12268;DHT22;6196;48.398;11.736;2022-08-01T09:40:58;29.50;99.90
12268;DHT22;6196;48.398;11.736;2022-08-01T09:43:29;29.20;99.90
12268;DHT22;6196;48.398;11.736;2022-08-01T09:45:58;29.30;99.90
12268;DHT22;6196;48.398;11.736;2022-08-01T09:48:26;29.20;99.90
12268;DHT22;6196;48.398;11.736;2022-08-01T09:50:58;29.40;99.90
12268;DHT22;6196;48.398;11.736;2022-08-01T09:53:43;29.40;99.90
12268;DHT22;6196;48.398;11.736;2022-08-01T09:56:20;30.00;99.90
12268;DHT22;6196;48.398;11.736;2022-08-01T10:01:26;30.00;99.90
12268;DHT22;6196;48.398;11.736;2022-08-01T10:04:09;30.70;99.90
12268;DHT22;6196;48.398;11.736;2022-08-01T10:06:43;30.30;99.90
12268;DHT22;6196;48.398;11.736;2022-08-01T10:09:29;30.30;99.90
12268;DHT22;6196;48.398;11.736;2022-08-01T10:12:07;30.50;99.90
12268;DHT22;6196;48.398;11.736;2022-08-01T10:14:42;30.70;99.70
12268;DHT22;6196;48.398;11.736;2022-08-01T10:17:14;30.80;99.90
12268;DHT22;6196;48.398;11.736;2022-08-01T10:19:46;30.90;99.80
12268;DHT22;6196;48.398;11.736;2022-08-01T10:22:18;30.80;99.60
12268;DHT22;6196;48.398;11.736;2022-08-01T10:24:47;30.70;97.90
12268;DHT22;6196;48.398;11.736;2022-08-01T10:27:16;30.20;99.70
12268;DHT22;6196;48.398;11.736;2022-08-01T10:30:03;29.90;99.10
12268;DHT22;6196;48.398;11.736;2022-08-01T10:32:52;29.50;99.90
12268;DHT22;6196;48.398;11.736;2022-08-01T10:35:21;29.60;99.90
12268;DHT22;6196;48.398;11.736;2022-08-01T10:38:08;29.50;99.90
12268;DHT22;6196;48.398;11.736;2022-08-01T10:40:40;29.20;99.90
12268;DHT22;6196;48.398;11.736;2022-08-01T10:43:12;29.10;99.90
12268;DHT22;6196;48.398;11.736;2022-08-01T10:45:47;29.10;99.90
12268;DHT22;6196;48.398;11.736;2022-08-01T10:51:09;28.90;99.90
12268;DHT22;6196;48.398;11.736;2022-08-01T10:53:53;29.50;99.90
12268;DHT22;6196;48.398;11.736;2022-08-01T10:56:23;30.00;99.90
12268;DHT22;6196;48.398;11.736;2022-08-01T10:59:01;30.70;99.90
12268;DHT22;6196;48.398;11.736;2022-08-01T11:01:37;31.10;99.80
12268;DHT22;6196;48.398;11.736;2022-08-01T11:04:13;31.20;98.80
12268;DHT22;6196;48.398;11.736;2022-08-01T11:06:51;31.20;98.40
12268;DHT22;6196;48.398;11.736;2022-08-01T11:09:47;31.70;97.20
12268;DHT22;6196;48.398;11.736;2022-08-01T11:12:18;32.30;96.60
12268;DHT22;6196;48.398;11.736;2022-08-01T11:17:44;31.70;97.30
12268;DHT22;6196;48.398;11.736;2022-08-01T11:20:28;32.30;96.30
12268;DHT22;6196;48.398;11.736;2022-08-01T11:28:26;31.30;97.00
12268;DHT22;6196;48.398;11.736;2022-08-01T11:41:40;31.30;93.40
12268;DHT22;6196;48.398;11.736;2022-08-01T11:44:19;31.60;93.10
12268;DHT22;6196;48.398;11.736;2022-08-01T11:47:06;32.10;94.10
12268;DHT22;6196;48.398;11.736;2022-08-01T11:49:43;32.00;92.70
12268;DHT22;6196;48.398;11.736;2022-08-01T11:54:51;32.00;92.40
12268;DHT22;6196;48.398;11.736;2022-08-01T11:57:24;31.90;94.00
12268;DHT22;6196;48.398;11.736;2022-08-01T12:00:05;31.50;92.20
12268;DHT22;6196;48.398;11.736;2022-08-01T12:02:41;31.20;92.90
12268;DHT22;6196;48.398;11.736;2022-08-01T12:05:12;30.90;93.30
12268;DHT22;6196;48.398;11.736;2022-08-01T12:07:42;31.00;93.70
12268;DHT22;6196;48.398;11.736;2022-08-01T12:10:15;30.70;92.40
12268;DHT22;6196;48.398;11.736;2022-08-01T12:12:45;31.10;94.20
12268;DHT22;6196;48.398;11.736;2022-08-01T12:15:13;32.10;95.00
12268;DHT22;6196;48.398;11.736;2022-08-01T12:17:48;32.50;93.00
12268;DHT22;6196;48.398;11.736;2022-08-01T12:20:28;33.20;91.40
12268;DHT22;6196;48.398;11.736;2022-08-01T12:23:03;33.40;92.00
12268;DHT22;6196;48.398;11.736;2022-08-01T12:25:35;33.20;90.60
12268;DHT22;6196;48.398;11.736;2022-08-01T12:28:04;33.20;90.80
12268;DHT22;6196;48.398;11.736;2022-08-01T12:30:34;33.50;91.50
12268;DHT22;6196;48.398;11.736;2022-08-01T12:33:08;33.40;91.90
12268;DHT22;6196;48.398;11.736;2022-08-01T12:35:38;32.90;91.50
12268;DHT22;6196;48.398;11.736;2022-08-01T12:38:19;32.40;91.20
12268;DHT22;6196;48.398;11.736;2022-08-01T12:40:49;31.80;93.00
12268;DHT22;6196;48.398;11.736;2022-08-01T12:43:21;31.50;92.50
12268;DHT22;6196;48.398;11.736;2022-08-01T12:45:56;31.60;93.00
12268;DHT22;6196;48.398;11.736;2022-08-01T12:48:25;31.80;93.50
12268;DHT22;6196;48.398;11.736;2022-08-01T12:50:53;32.10;93.00
12268;DHT22;6196;48.398;11.736;2022-08-01T12:53:20;32.40;92.50
12268;DHT22;6196;48.398;11.736;2022-08-01T12:55:54;32.00;91.00
12268;DHT22;6196;48.398;11.736;2022-08-01T12:58:33;31.80;91.80
12268;DHT22;6196;48.398;11.736;2022-08-01T13:01:08;31.70;92.20
12268;DHT22;6196;48.398;11.736;2022-08-01T13:03:37;31.70;92.90
12268;DHT22;6196;48.398;11.736;2022-08-01T13:06:12;31.80;91.80
12268;DHT22;6196;48.398;11.736;2022-08-01T13:08:41;32.10;92.80
12268;DHT22;6196;48.398;11.736;2022-08-01T13:11:10;33.10;92.70
12268;DHT22;6196;48.398;11.736;2022-08-01T13:13:45;33.20;91.00
12268;DHT22;6196;48.398;11.736;2022-08-01T13:16:18;32.40;90.00
12268;DHT22;6196;48.398;11.736;2022-08-01T13:18:59;32.20;90.40
12268;DHT22;6196;48.398;11.736;2022-08-01T13:21:29;31.60;90.20
12268;DHT22;6196;48.398;11.736;2022-08-01T13:24:31;31.20;90.90
12268;DHT22;6196;48.398;11.736;2022-08-01T13:26:59;31.00;91.80
12268;DHT22;6196;48.398;11.736;2022-08-01T13:29:37;30.70;92.20
12268;DHT22;6196;48.398;11.736;2022-08-01T13:35:04;30.10;97.00
12268;DHT22;6196;48.398;11.736;2022-08-01T13:37:36;29.60;99.30
12268;DHT22;6196;48.398;11.736;2022-08-01T13:40:06;29.20;99.90
12268;DHT22;6196;48.398;11.736;2022-08-01T13:42:33;28.70;99.90
12268;DHT22;6196;48.398;11.736;2022-08-01T13:45:01;28.20;99.90
12268;DHT22;6196;48.398;11.736;2022-08-01T13:47:29;28.00;99.90
12268;DHT22;6196;48.398;11.736;2022-08-01T13:50:01;27.90;99.90
12268;DHT22;6196;48.398;11.736;2022-08-01T13:52:29;27.80;99.90
12268;DHT22;6196;48.398;11.736;2022-08-01T13:54:57;27.80;99.90
12268;DHT22;6196;48.398;11.736;2022-08-01T13:57:27;27.40;99.90
12268;DHT22;6196;48.398;11.736;2022-08-01T14:00:05;27.20;99.90
12268;DHT22;6196;48.398;11.736;2022-08-01T14:02:33;27.10;99.90
12268;DHT22;6196;48.398;11.736;2022-08-01T14:05:00;26.90;99.90
12268;DHT22;6196;48.398;11.736;2022-08-01T14:07:27;26.90;99.90
12268;DHT22;6196;48.398;11.736;2022-08-01T14:09:55;27.00;99.90
12268;DHT22;6196;48.398;11.736;2022-08-01T14:12:42;26.90;99.90
12268;DHT22;6196;48.398;11.736;2022-08-01T14:15:11;27.00;99.90
12268;DHT22;6196;48.398;11.736;2022-08-01T14:17:39;26.80;99.90
12268;DHT22;6196;48.398;11.736;2022-08-01T14:20:13;26.70;99.90
12268;DHT22;6196;48.398;11.736;2022-08-01T14:22:40;26.30;99.90
12268;DHT22;6196;48.398;11.736;2022-08-01T14:25:07;26.20;99.90
12268;DHT22;6196;48.398;11.736;2022-08-01T14:27:35;26.00;99.90
12268;DHT22;6196;48.398;11.736;2022-08-01T14:30:03;25.80;99.90
12268;DHT22;6196;48.398;11.736;2022-08-01T14:32:31;25.50;99.90
12268;DHT22;6196;48.398;11.736;2022-08-01T14:35:01;25.50;99.90
12268;DHT22;6196;48.398;11.736;2022-08-01T14:37:29;25.30;99.90
12268;DHT22;6196;48.398;11.736;2022-08-01T14:40:04;25.00;99.90
12268;DHT22;6196;48.398;11.736;2022-08-01T14:42:36;25.20;99.90
12268;DHT22;6196;48.398;11.736;2022-08-01T14:45:05;25.60;99.90
12268;DHT22;6196;48.398;11.736;2022-08-01T14:47:39;25.80;99.90
12268;DHT22;6196;48.398;11.736;2022-08-01T14:50:13;25.70;99.90
12268;DHT22;6196;48.398;11.736;2022-08-01T14:52:42;25.70;99.90
12268;DHT22;6196;48.398;11.736;2022-08-01T14:55:11;25.60;99.90
12268;DHT22;6196;48.398;11.736;2022-08-01T14:57:39;25.70;99.90
12268;DHT22;6196;48.398;11.736;2022-08-01T15:00:08;25.60;99.90
12268;DHT22;6196;48.398;11.736;2022-08-01T15:02:39;25.80;99.90
12268;DHT22;6196;48.398;11.736;2022-08-01T15:05:07;25.90;99.90
12268;DHT22;6196;48.398;11.736;2022-08-01T15:07:35;25.80;99.90
12268;DHT22;6196;48.398;11.736;2022-08-01T15:10:18;25.20;99.90
12268;DHT22;6196;48.398;11.736;2022-08-01T15:12:44;24.90;99.90
12268;DHT22;6196;48.398;11.736;2022-08-01T15:15:16;24.90;99.90
12268;DHT22;6196;48.398;11.736;2022-08-01T15:17:43;25.10;99.90
12268;DHT22;6196;48.398;11.736;2022-08-01T15:20:11;25.20;99.90
12268;DHT22;6196;48.398;11.736;2022-08-01T15:22:38;25.20;99.90
12268;DHT22;6196;48.398;11.736;2022-08-01T15:25:05;25.10;99.90
12268;DHT22;6196;48.398;11.736;2022-08-01T15:27:32;25.20;99.90
12268;DHT22;6196;48.398;11.736;2022-08-01T15:29:59;25.20;99.90
12268;DHT22;6196;48.398;11.736;2022-08-01T15:32:26;25.30;99.90
12268;DHT22;6196;48.398;11.736;2022-08-01T15:34:53;25.50;99.90
12268;DHT22;6196;48.398;11.736;2022-08-01T15:37:20;25.90;99.90
12268;DHT22;6196;48.398;11.736;2022-08-01T15:39:48;26.20;99.90
12268;DHT22;6196;48.398;11.736;2022-08-01T15:42:20;26.30;99.90
12268;DHT22;6196;48.398;11.736;2022-08-01T15:44:53;26.40;99.90
12268;DHT22;6196;48.398;11.736;2022-08-01T15:47:20;26.40;99.90
12268;DHT22;6196;48.398;11.736;2022-08-01T15:49:50;26.30;99.90
12268;DHT22;6196;48.398;11.736;2022-08-01T15:52:18;26.00;99.90
12268;DHT22;6196;48.398;11.736;2022-08-01T15:54:48;25.90;99.90
12268;DHT22;6196;48.398;11.736;2022-08-01T15:57:15;25.80;99.90
12268;DHT22;6196;48.398;11.736;2022-08-01T15:59:43;25.70;99.90
12268;DHT22;6196;48.398;11.736;2022-08-01T16:02:10;25.60;99.90
12268;DHT22;6196;48.398;11.736;2022-08-01T16:04:37;25.50;99.90
12268;DHT22;6196;48.398;11.736;2022-08-01T16:07:05;25.30;99.90
12268;DHT22;6196;48.398;11.736;2022-08-01T16:09:32;25.20;99.90
12268;DHT22;6196;48.398;11.736;2022-08-01T16:11:59;25.00;99.90
12268;DHT22;6196;48.398;11.736;2022-08-01T16:14:26;24.90;99.90
12268;DHT22;6196;48.398;11.736;2022-08-01T16:16:53;24.80;99.90
12268;DHT22;6196;48.398;11.736;2022-08-01T16:19:19;24.80;99.90
12268;DHT22;6196;48.398;11.736;2022-08-01T16:21:47;24.70;99.90
12268;DHT22;6196;48.398;11.736;2022-08-01T16:24:14;24.70;99.90
12268;DHT22;6196;48.398;11.736;2022-08-01T16:26:41;24.60;99.90
12268;DHT22;6196;48.398;11.736;2022-08-01T16:29:08;24.70;99.90
12268;DHT22;6196;48.398;11.736;2022-08-01T16:31:35;24.60;99.90
12268;DHT22;6196;48.398;11.736;2022-08-01T16:34:22;24.60;99.90